Time;durP1;ratioP1;P1;durP2;ratioP2;P2;SDS_P1;SDS_P2;PMS_P1;PMS_P2;Temp;Humidity;BMP_temperature;BMP_pressure;BME280_temperature;BME280_humidity;BME280_pressure;Samples;Min_cycle;Max_cycle;Signal;HPM_P1;HPM_P2
2022/09/05 00:00:18;;;;;;;2.40;1.63;;;19.60;89.80;;;;;;5023615;28;20060;-64
2022/09/05 00:03:09;;;;;;;2.58;1.77;;;19.50;89.70;;;;;;5042956;28;20437;-64
2022/09/05 00:05:54;;;;;;;5.95;1.98;;;19.60;89.90;;;;;;5023757;28;20489;-65
2022/09/05 00:08:41;;;;;;;6.20;2.17;;;19.50;89.80;;;;;;5040996;28;20075;-65
2022/09/05 00:11:23;;;;;;;2.72;1.80;;;19.50;89.80;;;;;;5040769;28;20020;-64
2022/09/05 00:14:04;;;;;;;2.53;2.08;;;19.50;89.90;;;;;;5020925;28;20052;-65
2022/09/05 00:17:00;;;;;;;4.63;2.90;;;19.50;89.80;;;;;;5034065;28;20072;-65
2022/09/05 00:20:05;;;;;;;5.13;2.35;;;19.50;89.90;;;;;;5036227;28;20072;-64
2022/09/05 00:22:35;;;;;;;4.00;2.30;;;19.50;89.90;;;;;;5032938;28;20038;-64
2022/09/05 00:25:46;;;;;;;4.50;2.03;;;19.50;89.90;;;;;;5046905;28;20075;-64
2022/09/05 00:28:43;;;;;;;9.10;1.92;;;19.50;90.00;;;;;;4949290;28;20450;-64
2022/09/05 00:31:23;;;;;;;4.07;2.17;;;19.50;90.00;;;;;;4934261;29;20185;-64
2022/09/05 00:33:51;;;;;;;3.83;2.00;;;19.50;90.00;;;;;;4937129;29;20036;-65
2022/09/05 00:36:54;;;;;;;1.73;1.60;;;19.50;90.00;;;;;;4933915;29;20078;-64
2022/09/05 00:39:27;;;;;;;2.78;2.05;;;19.50;90.00;;;;;;4952948;28;20122;-66
2022/09/05 00:42:00;;;;;;;2.45;1.80;;;19.50;90.00;;;;;;4961750;28;20023;-65
2022/09/05 00:44:31;;;;;;;4.30;2.08;;;19.50;90.00;;;;;;4949469;28;20065;-64
2022/09/05 00:47:40;;;;;;;3.03;2.15;;;19.50;90.00;;;;;;4930487;29;20393;-64
2022/09/05 00:50:18;;;;;;;3.17;2.08;;;19.50;90.00;;;;;;4943639;28;20030;-64
2022/09/05 00:52:58;;;;;;;3.40;2.42;;;19.50;90.00;;;;;;4962617;28;20046;-64
2022/09/05 00:55:45;;;;;;;2.88;2.38;;;19.50;90.00;;;;;;4948137;29;20453;-64
2022/09/05 00:58:39;;;;;;;6.47;2.72;;;19.40;90.00;;;;;;4952177;28;20039;-64
2022/09/05 01:01:25;;;;;;;3.17;2.22;;;19.40;90.00;;;;;;4949633;28;20062;-65
2022/09/05 01:04:04;;;;;;;5.63;2.45;;;19.40;90.00;;;;;;4950815;28;20035;-65
2022/09/05 01:07:02;;;;;;;5.10;2.58;;;19.40;90.00;;;;;;5033074;28;20029;-65
2022/09/05 01:09:45;;;;;;;1.95;1.70;;;19.40;90.00;;;;;;5025215;28;20068;-65
2022/09/05 01:12:29;;;;;;;6.03;2.78;;;19.40;90.00;;;;;;5022856;28;20112;-65
2022/09/05 01:15:16;;;;;;;2.90;2.10;;;19.40;90.00;;;;;;5039752;28;20036;-65
2022/09/05 01:17:57;;;;;;;3.25;2.22;;;19.40;90.10;;;;;;5014292;28;20017;-64
2022/09/05 01:21:04;;;;;;;4.90;2.30;;;19.40;90.10;;;;;;5026377;28;20505;-65
2022/09/05 01:23:44;;;;;;;3.20;2.30;;;19.40;90.10;;;;;;5041519;28;20041;-65
2022/09/05 01:26:10;;;;;;;2.80;2.00;;;19.40;90.10;;;;;;5041792;28;20482;-64
2022/09/05 01:28:58;;;;;;;3.22;2.40;;;19.40;90.10;;;;;;5045042;28;20117;-64
2022/09/05 01:32:10;;;;;;;2.65;1.98;;;19.40;90.10;;;;;;5043761;28;20114;-65
2022/09/05 01:35:21;;;;;;;4.07;2.30;;;19.40;90.10;;;;;;5033058;28;20494;-64
2022/09/05 01:38:09;;;;;;;3.53;1.70;;;19.40;90.50;;;;;;5040145;28;20489;-65
2022/09/05 01:40:47;;;;;;;3.17;2.35;;;19.40;90.10;;;;;;5024709;28;20032;-65
2022/09/05 01:43:25;;;;;;;5.13;2.53;;;19.30;90.10;;;;;;5026522;28;20029;-64
2022/09/05 01:46:15;;;;;;;3.38;2.22;;;19.30;90.10;;;;;;5043881;28;20048;-65
2022/09/05 01:49:02;;;;;;;5.72;2.20;;;19.30;90.10;;;;;;5025343;28;20034;-65
2022/09/05 01:51:48;;;;;;;3.45;2.30;;;19.30;90.10;;;;;;5024035;28;20044;-65
2022/09/05 01:54:53;;;;;;;4.10;2.15;;;19.30;90.10;;;;;;5015248;28;20041;-65
2022/09/05 01:57:41;;;;;;;3.90;2.20;;;19.30;90.10;;;;;;4968631;28;20038;-65
2022/09/05 02:13:36;;;;;;;3.25;2.00;;;19.30;90.20;;;;;;4943119;29;20113;-65
2022/09/05 02:23:01;;;;;;;5.68;2.33;;;19.30;90.20;;;;;;4939038;28;20529;-65
2022/09/05 02:25:48;;;;;;;2.60;2.20;;;19.30;90.20;;;;;;4936147;29;20038;-65
2022/09/05 02:28:38;;;;;;;3.08;2.22;;;19.20;90.20;;;;;;4975899;28;20054;-65
2022/09/05 02:31:25;;;;;;;6.38;2.13;;;19.30;90.20;;;;;;5009952;28;20391;-64
2022/09/05 02:34:06;;;;;;;4.82;2.53;;;19.30;90.20;;;;;;4991079;28;20193;-65
2022/09/05 02:47:08;;;;;;;3.28;2.22;;;19.30;90.20;;;;;;5019613;28;20036;-64
2022/09/05 02:50:00;;;;;;;4.78;2.35;;;19.20;90.20;;;;;;5022760;28;20060;-65
2022/09/05 02:52:29;;;;;;;4.82;2.13;;;19.20;90.20;;;;;;5022708;28;20041;-65
2022/09/05 02:54:56;;;;;;;2.73;1.90;;;19.20;90.20;;;;;;5050727;28;20040;-65
2022/09/05 02:57:46;;;;;;;3.33;1.95;;;19.20;90.20;;;;;;5043670;28;20088;-65
2022/09/05 03:00:22;;;;;;;5.43;2.63;;;19.20;90.20;;;;;;5043433;28;20017;-64
2022/09/05 03:03:15;;;;;;;2.40;1.90;;;19.20;90.20;;;;;;5032074;28;20080;-65
2022/09/05 03:05:51;;;;;;;2.97;2.20;;;19.20;90.20;;;;;;5039026;28;20471;-64
2022/09/05 03:08:41;;;;;;;3.00;2.38;;;19.20;90.20;;;;;;5016855;28;20030;-64
2022/09/05 03:11:10;;;;;;;3.40;2.28;;;19.20;90.20;;;;;;5024837;28;20369;-64
2022/09/05 03:14:01;;;;;;;2.95;2.00;;;19.20;90.20;;;;;;5040111;28;20463;-65
2022/09/05 03:17:04;;;;;;;5.45;2.00;;;19.20;90.20;;;;;;5041516;28;20092;-65
2022/09/05 03:19:55;;;;;;;2.17;1.88;;;19.20;90.20;;;;;;5016487;28;20030;-65
2022/09/05 03:22:52;;;;;;;2.30;1.92;;;19.20;90.20;;;;;;5039901;28;20490;-65
2022/09/05 03:25:20;;;;;;;3.75;2.05;;;19.20;90.20;;;;;;5021342;28;20462;-65
2022/09/05 03:27:55;;;;;;;4.57;2.10;;;19.20;90.30;;;;;;5040839;28;20033;-64
2022/09/05 03:30:23;;;;;;;10.32;2.30;;;19.20;90.30;;;;;;5017096;28;20021;-64
2022/09/05 03:33:20;;;;;;;4.10;2.00;;;19.10;90.20;;;;;;5021147;28;20060;-65
2022/09/05 03:35:58;;;;;;;4.60;2.05;;;19.10;90.20;;;;;;5020759;28;20121;-64
2022/09/05 03:38:48;;;;;;;2.95;2.20;;;19.10;90.20;;;;;;5020322;28;20021;-65
2022/09/05 03:41:23;;;;;;;;;;;19.10;90.30;;;;;;5019746;28;20033;-65
2022/09/05 03:44:35;;;;;;;2.60;1.92;;;19.10;90.20;;;;;;5038972;28;19956;-65
2022/09/05 03:47:30;;;;;;;2.60;2.10;;;19.10;90.30;;;;;;4979833;28;20062;-64
2022/09/05 03:50:22;;;;;;;4.13;2.33;;;19.10;90.30;;;;;;4991564;28;20031;-65
2022/09/05 03:53:16;;;;;;;4.50;2.42;;;19.10;90.30;;;;;;4969441;28;20041;-65
2022/09/05 03:55:50;;;;;;;3.10;1.80;;;19.10;90.30;;;;;;4978178;28;20532;-65
2022/09/05 03:59:04;;;;;;;2.17;1.98;;;19.10;90.30;;;;;;4977803;28;20058;-65
2022/09/05 04:01:45;;;;;;;3.55;2.45;;;19.10;90.30;;;;;;4958071;28;20047;-65
2022/09/05 04:04:36;;;;;;;3.10;2.10;;;19.10;90.30;;;;;;4960379;28;20050;-64
2022/09/05 04:07:10;;;;;;;3.17;2.33;;;19.10;90.30;;;;;;4973094;28;20019;-65
2022/09/05 04:09:38;;;;;;;3.92;2.13;;;19.10;90.60;;;;;;4959083;28;20094;-65
2022/09/05 04:12:29;;;;;;;4.55;2.70;;;19.00;90.30;;;;;;4950309;28;20058;-64
2022/09/05 04:15:00;;;;;;;4.70;2.20;;;19.00;90.30;;;;;;4962259;28;20037;-64
2022/09/05 04:18:04;;;;;;;4.30;2.55;;;19.00;90.30;;;;;;4961753;28;20032;-65
2022/09/05 04:20:55;;;;;;;3.80;2.40;;;19.00;90.30;;;;;;4950877;28;20404;-64
2022/09/05 04:23:41;;;;;;;4.68;2.47;;;19.10;90.30;;;;;;4961052;28;20075;-64
2022/09/05 04:26:25;;;;;;;3.42;2.28;;;19.00;90.30;;;;;;4963987;28;20453;-64
2022/09/05 04:29:18;;;;;;;4.70;2.42;;;19.00;90.30;;;;;;4977385;28;20054;-65
2022/09/05 04:32:12;;;;;;;4.38;2.30;;;19.00;90.30;;;;;;4970173;28;20496;-64
2022/09/05 04:35:04;;;;;;;5.68;2.38;;;19.00;90.30;;;;;;4996831;28;20049;-65
2022/09/05 04:37:39;;;;;;;10.85;2.83;;;19.00;90.30;;;;;;4996996;28;20068;-65
2022/09/05 04:40:33;;;;;;;4.60;2.88;;;19.00;90.30;;;;;;5043886;28;20032;-64
2022/09/05 04:43:16;;;;;;;5.55;3.00;;;19.00;90.30;;;;;;5031609;28;20025;-65
2022/09/05 04:45:48;;;;;;;10.90;2.88;;;19.00;90.30;;;;;;5045227;28;20518;-64
2022/09/05 04:48:21;;;;;;;5.18;2.80;;;19.00;90.30;;;;;;5019118;28;20041;-64
2022/09/05 04:51:09;;;;;;;6.25;2.70;;;19.00;90.40;;;;;;5013432;28;20025;-64
2022/09/05 04:54:10;;;;;;;4.85;2.88;;;19.00;90.40;;;;;;5023203;28;20032;-65
2022/09/05 04:56:41;;;;;;;4.10;2.53;;;19.00;90.40;;;;;;5041074;28;20121;-65
2022/09/05 04:59:17;;;;;;;5.40;2.95;;;19.00;90.40;;;;;;5030354;28;20017;-64
2022/09/05 05:01:57;;;;;;;4.50;2.42;;;19.00;90.40;;;;;;5038894;28;20491;-64
2022/09/05 05:04:25;;;;;;;5.93;3.33;;;19.00;90.40;;;;;;5017459;28;20083;-65
2022/09/05 05:07:17;;;;;;;5.70;3.25;;;19.00;90.30;;;;;;5039253;28;20170;-65
2022/09/05 05:09:48;;;;;;;4.05;3.10;;;19.00;90.40;;;;;;5012369;28;20124;-64
2022/09/05 05:12:36;;;;;;;6.07;3.00;;;19.00;90.40;;;;;;5027287;28;20025;-65
2022/09/05 05:15:12;;;;;;;6.68;2.58;;;19.00;90.40;;;;;;5021885;28;20021;-65
2022/09/05 05:18:12;;;;;;;6.18;2.15;;;19.00;90.40;;;;;;5022321;28;20028;-65
2022/09/05 05:21:01;;;;;;;5.13;2.53;;;19.00;90.30;;;;;;5027244;28;20037;-65
2022/09/05 05:23:30;;;;;;;6.22;2.67;;;19.00;90.30;;;;;;5031935;28;20074;-65
2022/09/05 05:26:00;;;;;;;2.45;2.17;;;19.00;90.30;;;;;;5035728;28;20025;-65
2022/09/05 05:28:37;;;;;;;3.20;2.38;;;19.00;90.30;;;;;;5037634;28;20036;-66
2022/09/05 05:31:13;;;;;;;5.55;2.90;;;19.00;90.30;;;;;;5046257;28;20040;-65
2022/09/05 05:33:43;;;;;;;3.70;2.90;;;19.00;90.30;;;;;;5037543;28;20479;-65
2022/09/05 05:36:26;;;;;;;4.57;2.45;;;19.00;90.30;;;;;;5023064;28;20043;-65
2022/09/05 05:39:13;;;;;;;4.45;2.50;;;19.00;90.30;;;;;;5015217;28;20399;-65
2022/09/05 05:41:47;;;;;;;6.88;2.80;;;19.00;90.30;;;;;;5041163;28;20025;-65
2022/09/05 05:44:29;;;;;;;8.43;2.47;;;19.00;90.30;;;;;;5029757;28;20479;-65
2022/09/05 05:47:05;;;;;;;3.97;2.55;;;19.00;90.30;;;;;;5020637;28;20029;-65
2022/09/05 05:49:42;;;;;;;7.00;3.08;;;19.00;90.30;;;;;;5016065;28;20038;-65
2022/09/05 06:00:01;;;;;;;5.63;2.70;;;19.00;90.30;;;;;;4965218;28;20427;-65
2022/09/05 06:02:48;;;;;;;2.85;2.33;;;19.10;90.20;;;;;;4965152;28;20117;-65
2022/09/05 06:05:32;;;;;;;6.07;2.20;;;19.10;90.20;;;;;;4961681;28;20042;-65
2022/09/05 06:08:20;;;;;;;3.13;2.35;;;19.10;90.20;;;;;;4955255;28;20050;-65
2022/09/05 06:11:07;;;;;;;6.68;2.47;;;19.10;90.20;;;;;;4951786;29;20031;-65
2022/09/05 06:14:06;;;;;;;2.40;2.03;;;19.10;90.20;;;;;;4970901;28;20034;-64
2022/09/05 06:16:53;;;;;;;3.83;2.25;;;19.20;90.10;;;;;;4964689;28;20163;-65
2022/09/05 06:19:46;;;;;;;3.20;2.28;;;19.20;90.10;;;;;;4964073;28;20309;-65
2022/09/05 06:22:52;;;;;;;3.95;2.40;;;19.20;90.10;;;;;;4970627;28;20125;-65
2022/09/05 06:25:39;;;;;;;4.43;2.95;;;19.20;90.00;;;;;;4962773;28;20062;-65
2022/09/05 06:28:14;;;;;;;5.07;2.90;;;19.30;90.00;;;;;;4970388;28;20539;-65
2022/09/05 06:31:08;;;;;;;4.50;3.40;;;19.30;90.00;;;;;;4971435;28;20034;-65
2022/09/05 06:33:45;;;;;;;6.22;3.47;;;19.30;90.00;;;;;;5033515;28;20018;-65
2022/09/05 06:36:12;;;;;;;7.25;3.00;;;19.30;90.00;;;;;;5026851;28;20025;-65
2022/09/05 06:39:10;;;;;;;6.07;3.20;;;19.40;90.00;;;;;;5040806;28;20360;-65
2022/09/05 06:42:02;;;;;;;5.93;3.35;;;19.40;90.00;;;;;;5034898;28;20024;-65
2022/09/05 06:51:40;;;;;;;10.63;3.13;;;19.50;89.80;;;;;;5055348;28;20067;-65
2022/09/05 06:54:17;;;;;;;4.50;2.45;;;19.60;89.70;;;;;;5039337;28;20056;-65
2022/09/05 06:57:04;;;;;;;4.53;3.13;;;19.60;89.70;;;;;;5026622;28;20017;-65
2022/09/05 06:59:47;;;;;;;5.57;2.78;;;19.70;89.70;;;;;;5015595;28;20025;-65
2022/09/05 07:02:22;;;;;;;10.55;3.30;;;19.70;89.60;;;;;;5033359;28;20060;-65
2022/09/05 07:05:12;;;;;;;8.30;3.42;;;19.80;89.80;;;;;;5044825;28;20490;-65
2022/09/05 07:07:50;;;;;;;7.40;3.00;;;19.80;89.80;;;;;;4993979;28;20476;-65
2022/09/05 07:10:26;;;;;;;4.10;3.13;;;19.90;89.70;;;;;;4995855;28;20039;-65
2022/09/05 07:13:03;;;;;;;5.07;3.03;;;19.90;89.70;;;;;;5031885;28;20443;-65
2022/09/05 07:15:35;;;;;;;8.07;3.65;;;20.00;89.60;;;;;;5001557;28;20105;-65
2022/09/05 07:18:21;;;;;;;4.50;3.60;;;20.00;89.50;;;;;;4999329;28;20057;-65
2022/09/05 07:20:54;;;;;;;7.15;3.35;;;20.10;89.50;;;;;;5016801;28;20041;-66
2022/09/05 07:23:35;;;;;;;7.07;3.75;;;20.10;89.40;;;;;;5020156;28;20034;-65
2022/09/05 07:26:06;;;;;;;11.73;3.75;;;20.20;89.30;;;;;;4999309;28;20507;-65
2022/09/05 07:28:35;;;;;;;5.85;4.05;;;20.20;90.00;;;;;;5029078;28;20033;-65
2022/09/05 07:31:16;;;;;;;5.57;3.63;;;20.20;89.30;;;;;;5010981;28;20018;-66
2022/09/05 07:33:45;;;;;;;5.13;4.07;;;20.30;89.50;;;;;;4995403;28;20026;-65
2022/09/05 07:36:19;;;;;;;9.88;4.63;;;20.40;89.60;;;;;;4993682;28;20034;-65
2022/09/05 07:38:49;;;;;;;9.77;4.53;;;20.40;89.60;;;;;;5007505;28;20083;-65
2022/09/05 07:41:42;;;;;;;8.23;4.18;;;20.40;89.50;;;;;;5020884;28;20026;-65
2022/09/05 07:44:20;;;;;;;7.25;3.75;;;20.50;89.40;;;;;;5014648;28;20025;-65
2022/09/05 07:46:49;;;;;;;6.05;4.00;;;20.60;89.20;;;;;;5021646;28;20033;-65
2022/09/05 07:49:19;;;;;;;6.72;3.90;;;20.60;89.10;;;;;;5003304;28;20510;-65
2022/09/05 07:51:59;;;;;;;5.32;3.50;;;20.60;89.10;;;;;;5024029;28;20044;-65
2022/09/05 07:54:30;;;;;;;11.95;4.35;;;20.70;89.10;;;;;;5004577;28;20014;-65
2022/09/05 07:56:58;;;;;;;8.73;4.07;;;20.70;89.00;;;;;;5012329;28;20029;-65
2022/09/05 07:59:28;;;;;;;7.40;3.60;;;20.70;88.80;;;;;;5002149;28;20029;-65
2022/09/05 08:01:55;;;;;;;6.65;4.38;;;20.80;88.90;;;;;;5017821;28;20021;-65
2022/09/05 08:04:28;;;;;;;9.25;3.97;;;20.80;88.70;;;;;;5019490;28;20030;-65
2022/09/05 08:06:57;;;;;;;7.03;4.63;;;20.80;88.60;;;;;;5007349;28;20022;-65
2022/09/05 08:09:30;;;;;;;15.82;5.03;;;20.90;88.60;;;;;;5020100;28;20036;-65
2022/09/05 08:12:01;;;;;;;7.75;4.38;;;20.90;88.60;;;;;;5019104;28;20030;-65
2022/09/05 08:14:40;;;;;;;9.35;4.57;;;21.00;88.50;;;;;;5003707;28;20390;-65
2022/09/05 08:17:19;;;;;;;7.45;4.32;;;21.00;88.40;;;;;;5010842;28;20024;-65
2022/09/05 08:20:06;;;;;;;10.63;4.95;;;21.00;88.40;;;;;;5018932;28;20017;-65
2022/09/05 08:22:45;;;;;;;8.18;4.30;;;21.10;89.20;;;;;;5020634;28;20021;-65
2022/09/05 08:25:21;;;;;;;4.25;3.20;;;21.10;88.20;;;;;;5021605;28;20033;-65
2022/09/05 08:28:02;;;;;;;6.70;3.75;;;21.20;88.30;;;;;;5004040;28;20064;-65
2022/09/05 08:30:37;;;;;;;6.35;3.63;;;21.20;88.20;;;;;;5018970;28;20040;-65
2022/09/05 08:33:02;;;;;;;7.05;3.70;;;21.20;88.10;;;;;;5018834;28;20116;-65
2022/09/05 08:35:39;;;;;;;4.70;3.03;;;21.30;88.10;;;;;;4996551;28;20110;-66
2022/09/05 08:38:16;;;;;;;5.10;3.00;;;21.30;88.10;;;;;;5017467;28;20109;-65
2022/09/05 08:41:23;;;;;;;5.40;3.05;;;21.30;87.90;;;;;;5018469;28;20037;-65
2022/09/05 08:44:27;;;;;;;4.45;2.78;;;21.40;87.90;;;;;;5012005;28;20105;-65
2022/09/05 08:47:36;;;;;;;10.40;2.75;;;21.40;88.00;;;;;;5020593;28;20030;-65
2022/09/05 08:51:00;;;;;;;3.20;2.63;;;21.50;87.70;;;;;;4934640;29;20071;-65
2022/09/05 08:53:53;;;;;;;8.18;3.28;;;21.50;87.40;;;;;;4929105;29;20050;-65
2022/09/05 08:56:44;;;;;;;4.80;3.33;;;21.50;87.20;;;;;;4921889;29;20057;-65
2022/09/05 08:59:28;;;;;;;15.48;3.88;;;21.60;87.10;;;;;;4941647;29;20365;-65
2022/09/05 09:01:54;;;;;;;4.82;2.67;;;21.60;86.90;;;;;;4937853;29;20031;-65
2022/09/05 09:04:43;;;;;;;9.02;3.10;;;21.60;86.90;;;;;;4938844;29;20395;-65
2022/09/05 09:07:29;;;;;;;3.17;2.58;;;21.60;86.70;;;;;;4939159;29;20047;-65
2022/09/05 09:10:21;;;;;;;5.60;3.08;;;21.70;86.70;;;;;;4935617;29;20071;-65
2022/09/05 09:13:09;;;;;;;5.05;3.20;;;21.70;86.60;;;;;;4937952;29;20035;-65
2022/09/05 09:15:48;;;;;;;10.65;3.03;;;21.70;86.50;;;;;;4923821;29;20532;-65
2022/09/05 09:18:16;;;;;;;4.63;3.20;;;21.70;86.30;;;;;;4957498;28;20035;-65
2022/09/05 09:21:11;;;;;;;8.15;2.95;;;21.80;86.30;;;;;;4954181;28;20502;-65
2022/09/05 09:23:46;;;;;;;18.85;3.95;;;21.80;86.30;;;;;;4916409;29;20072;-65
2022/09/05 09:26:16;;;;;;;5.60;3.00;;;21.80;86.30;;;;;;4924058;28;20511;-65
2022/09/05 09:29:02;;;;;;;7.70;3.35;;;21.80;86.30;;;;;;5011237;28;20041;-65
2022/09/05 09:31:56;;;;;;;6.03;3.40;;;21.80;86.30;;;;;;5001307;28;20030;-66
2022/09/05 09:34:24;;;;;;;5.65;3.50;;;21.80;86.40;;;;;;5018641;28;20120;-65
2022/09/05 09:37:13;;;;;;;8.95;3.05;;;21.80;86.40;;;;;;5019021;28;20030;-65
2022/09/05 09:39:51;;;;;;;7.25;2.90;;;21.80;86.50;;;;;;5007622;28;20409;-65
2022/09/05 09:42:47;;;;;;;6.25;3.30;;;21.70;86.60;;;;;;4996177;28;20035;-65
2022/09/05 09:45:51;;;;;;;10.07;2.75;;;21.70;86.50;;;;;;5017112;28;20088;-65
2022/09/05 09:48:44;;;;;;;4.85;2.58;;;21.70;86.60;;;;;;5008688;28;20491;-65
2022/09/05 09:51:42;;;;;;;14.43;3.50;;;21.70;86.70;;;;;;5017462;28;20113;-65
2022/09/05 09:54:30;;;;;;;7.53;3.47;;;21.60;86.70;;;;;;5021994;28;20030;-65
2022/09/05 09:57:01;;;;;;;10.18;3.63;;;21.60;86.80;;;;;;5007266;28;20033;-65
2022/09/05 09:59:33;;;;;;;6.85;3.17;;;21.60;87.00;;;;;;5004502;28;20104;-66
2022/09/05 10:02:33;;;;;;;5.68;3.50;;;21.60;87.10;;;;;;5025415;28;20435;-65
2022/09/05 10:05:02;;;;;;;6.22;2.88;;;21.50;87.10;;;;;;5023979;28;20472;-65
2022/09/05 10:08:01;;;;;;;4.47;3.25;;;21.50;87.30;;;;;;5016241;28;20036;-66
2022/09/05 10:10:48;;;;;;;4.32;2.65;;;21.50;87.30;;;;;;5023584;28;20033;-66
2022/09/05 10:13:23;;;;;;;5.25;2.80;;;21.50;87.30;;;;;;5019754;28;20026;-65
2022/09/05 10:16:14;;;;;;;4.68;2.60;;;21.40;87.30;;;;;;4994944;28;20392;-65
2022/09/05 10:18:53;;;;;;;6.60;2.22;;;21.40;87.40;;;;;;5022891;28;20093;-65
2022/09/05 10:21:56;;;;;;;7.18;2.60;;;21.40;87.50;;;;;;5024031;28;20030;-65
2022/09/05 10:24:31;;;;;;;4.85;2.70;;;21.40;87.50;;;;;;4991282;28;20029;-65
2022/09/05 10:31:04;;;;;;;3.80;2.83;;;21.30;87.30;;;;;;5024966;28;20040;-65
2022/09/05 10:33:37;;;;;;;5.68;2.92;;;21.30;87.40;;;;;;4946490;28;20039;-65
2022/09/05 10:36:30;;;;;;;6.88;2.30;;;21.30;87.40;;;;;;5023263;28;20022;-65
2022/09/05 10:39:24;;;;;;;2.92;2.00;;;21.30;87.50;;;;;;5018642;28;20041;-65
2022/09/05 10:42:24;;;;;;;2.30;2.10;;;21.30;87.60;;;;;;5005271;28;20413;-65
2022/09/05 10:52:00;;;;;;;4.82;2.83;;;21.20;87.70;;;;;;5021183;28;20033;-65
2022/09/05 10:58:42;;;;;;;3.83;2.13;;;21.20;87.80;;;;;;4914477;29;20027;-65
2022/09/05 11:01:40;;;;;;;5.15;2.70;;;21.20;87.90;;;;;;4907300;29;20554;-65
2022/09/05 11:04:30;;;;;;;6.15;2.72;;;21.10;88.00;;;;;;4903416;29;20033;-65
2022/09/05 11:10:22;;;;;;;6.00;2.55;;;21.10;88.10;;;;;;5033564;23;20056;-66
2022/09/05 11:12:57;;;;;;;11.32;2.95;;;21.10;88.20;;;;;;5020353;28;20548;-66
2022/09/05 11:15:44;;;;;;;5.43;3.08;;;21.10;88.20;;;;;;5020018;28;20050;-66
2022/09/05 11:18:40;;;;;;;7.25;2.72;;;21.10;88.30;;;;;;5020333;28;20439;-66
2022/09/05 11:21:24;;;;;;;7.68;2.38;;;21.10;88.30;;;;;;5020669;28;20518;-66
2022/09/05 11:24:22;;;;;;;14.48;2.95;;;21.10;88.30;;;;;;5028944;28;20483;-66
2022/09/05 11:27:03;;;;;;;9.95;3.17;;;21.10;88.40;;;;;;5036205;28;20153;-67
2022/09/05 11:30:12;;;;;;;3.80;2.88;;;21.10;88.50;;;;;;5019564;28;20041;-67
2022/09/05 11:32:55;;;;;;;4.25;2.53;;;21.10;88.60;;;;;;4950751;29;20126;-66
2022/09/05 11:35:27;;;;;;;4.43;2.80;;;21.10;88.60;;;;;;4956004;28;20106;-66
2022/09/05 11:38:08;;;;;;;11.25;2.88;;;21.10;88.80;;;;;;4959415;28;20066;-67
2022/09/05 11:41:21;;;;;;;6.32;3.10;;;21.00;88.60;;;;;;4956629;28;20031;-67
2022/09/05 11:44:27;;;;;;;5.32;2.65;;;21.00;88.70;;;;;;4921086;29;20040;-66
2022/09/05 11:47:14;;;;;;;4.65;2.60;;;21.10;88.90;;;;;;4904138;29;20032;-65
2022/09/05 11:49:58;;;;;;;8.68;2.95;;;21.10;88.90;;;;;;4930696;29;20067;-64
2022/09/05 11:52:51;;;;;;;6.50;3.33;;;21.00;88.90;;;;;;4930994;29;20031;-65
2022/09/05 11:56:02;;;;;;;5.25;2.60;;;21.00;88.90;;;;;;4906666;29;20058;-66
2022/09/05 11:58:49;;;;;;;10.38;2.85;;;21.00;89.00;;;;;;4851546;29;20037;-66
2022/09/05 12:01:59;;;;;;;11.43;2.75;;;21.00;89.10;;;;;;4920173;29;20039;-66
2022/09/05 12:04:24;;;;;;;;;;;21.10;89.10;;;;;;4909723;29;20045;-66
2022/09/05 12:07:10;;;;;;;4.60;2.35;;;21.10;89.10;;;;;;4976044;28;19910;-66
2022/09/05 12:10:11;;;;;;;9.07;2.65;;;21.10;89.10;;;;;;4968775;28;20592;-67
2022/09/05 12:13:15;;;;;;;13.45;2.78;;;21.10;89.10;;;;;;4947340;28;20199;-66
2022/09/05 12:15:45;;;;;;;9.05;2.80;;;21.10;89.20;;;;;;4957122;28;20027;-67
2022/09/05 12:18:35;;;;;;;5.00;2.60;;;21.10;89.20;;;;;;4981059;28;20022;-66
2022/09/05 12:21:18;;;;;;;10.88;2.95;;;21.10;89.20;;;;;;5027556;28;20041;-66
2022/09/05 12:24:03;;;;;;;9.10;2.63;;;21.10;89.20;;;;;;5023928;28;20064;-66
2022/09/05 12:26:35;;;;;;;4.90;2.70;;;21.10;89.20;;;;;;5030718;28;20544;-66
2022/09/05 12:29:17;;;;;;;2.33;2.00;;;21.10;89.30;;;;;;5021302;28;20061;-66
2022/09/05 12:31:49;;;;;;;5.68;2.30;;;21.10;89.40;;;;;;5038314;28;20482;-66
2022/09/05 12:34:48;;;;;;;6.45;2.50;;;21.10;89.40;;;;;;5038768;28;20477;-66
2022/09/05 12:37:35;;;;;;;2.28;2.00;;;21.10;89.60;;;;;;5048556;28;20379;-66
2022/09/05 12:40:13;;;;;;;6.53;2.80;;;21.10;89.50;;;;;;5038321;28;20029;-66
2022/09/05 12:42:44;;;;;;;2.90;2.20;;;21.10;89.60;;;;;;5041236;28;20025;-66
2022/09/05 12:45:31;;;;;;;4.63;2.30;;;21.10;89.60;;;;;;5040518;28;20051;-67
2022/09/05 12:48:37;;;;;;;3.42;2.10;;;21.10;89.60;;;;;;5038245;28;20041;-66
2022/09/05 12:51:18;;;;;;;2.13;1.92;;;21.10;89.70;;;;;;5023053;28;20044;-66
2022/09/05 12:53:53;;;;;;;1.85;1.70;;;21.10;89.70;;;;;;5041108;28;20467;-68
2022/09/05 12:56:57;;;;;;;2.80;2.10;;;21.10;89.70;;;;;;5034402;28;20293;-66
2022/09/05 12:59:27;;;;;;;5.45;2.60;;;21.10;89.60;;;;;;4988084;28;20058;-66
2022/09/05 13:02:06;;;;;;;4.43;2.92;;;21.10;89.70;;;;;;5005491;28;20045;-66
2022/09/05 13:04:45;;;;;;;3.85;2.20;;;21.10;89.80;;;;;;4991134;28;20041;-66
2022/09/05 13:14:11;;;;;;;4.85;2.00;;;21.10;89.80;;;;;;5008617;28;20049;-66
2022/09/05 13:20:36;;;;;;;4.85;2.60;;;21.10;90.00;;;;;;5008296;28;20040;-66
2022/09/05 13:40:43;;;;;;;3.17;2.03;;;21.10;90.00;;;;;;4990085;28;20037;-66
2022/09/05 13:43:11;;;;;;;4.32;2.08;;;21.10;90.00;;;;;;4978808;28;20034;-65
2022/09/05 13:59:26;;;;;;;6.97;2.28;;;21.10;90.00;;;;;;4967685;28;20031;-66
2022/09/05 14:02:16;;;;;;;2.92;2.17;;;21.10;90.00;;;;;;4995615;28;20022;-66
2022/09/05 14:04:55;;;;;;;3.90;2.22;;;21.10;90.00;;;;;;4994103;28;20105;-66
2022/09/05 14:07:30;;;;;;;4.10;2.53;;;21.10;90.00;;;;;;4995651;28;20137;-66
2022/09/05 14:10:14;;;;;;;2.33;2.10;;;21.10;90.00;;;;;;4995961;28;20026;-67
2022/09/05 14:12:39;;;;;;;4.10;2.10;;;21.10;90.00;;;;;;4999725;28;20026;-66
2022/09/05 14:15:38;;;;;;;5.95;2.30;;;21.10;90.00;;;;;;4994695;28;20057;-67
2022/09/05 14:18:25;;;;;;;3.75;1.90;;;21.10;90.00;;;;;;4983201;28;20035;-66
2022/09/05 14:21:15;;;;;;;4.30;2.08;;;21.10;90.00;;;;;;5026450;28;20211;-66
2022/09/05 14:23:55;;;;;;;2.17;1.98;;;21.00;90.00;;;;;;5047116;28;20033;-66
2022/09/05 14:26:39;;;;;;;2.72;2.13;;;21.10;90.00;;;;;;5050380;28;20026;-66
2022/09/05 14:29:05;;;;;;;4.75;2.78;;;21.10;90.00;;;;;;5034766;28;20040;-66
2022/09/05 14:32:00;;;;;;;8.80;2.40;;;21.00;90.00;;;;;;5044259;28;20017;-67
2022/09/05 14:34:44;;;;;;;9.77;2.25;;;21.10;90.00;;;;;;5044339;28;20032;-66
2022/09/05 14:37:36;;;;;;;7.30;2.05;;;21.00;90.00;;;;;;5033666;28;20021;-66
2022/09/05 14:40:14;;;;;;;5.25;2.22;;;21.00;90.00;;;;;;5035345;28;20153;-66
2022/09/05 14:43:14;;;;;;;4.72;2.70;;;21.10;89.80;;;;;;5044301;28;20025;-67
2022/09/05 14:46:06;;;;;;;7.38;2.40;;;21.10;89.50;;;;;;5045009;28;20021;-67
2022/09/05 14:48:52;;;;;;;9.32;2.53;;;21.10;89.50;;;;;;5017896;28;20033;-66
2022/09/05 14:51:39;;;;;;;6.80;3.00;;;21.10;89.60;;;;;;5041139;28;20021;-66
2022/09/05 14:54:22;;;;;;;4.10;2.30;;;21.10;90.10;;;;;;5040911;28;20014;-66
2022/09/05 14:56:58;;;;;;;6.47;2.45;;;21.10;89.60;;;;;;5035981;28;20104;-66
2022/09/05 14:59:31;;;;;;;3.40;2.22;;;21.10;89.60;;;;;;5043170;28;20032;-67
2022/09/05 15:02:18;;;;;;;3.95;2.33;;;21.10;89.70;;;;;;5043454;28;20374;-67
2022/09/05 15:04:50;;;;;;;3.85;2.60;;;21.10;89.80;;;;;;5045501;28;20028;-67
2022/09/05 15:07:36;;;;;;;3.92;2.58;;;21.00;89.80;;;;;;5040576;28;20032;-67
2022/09/05 15:10:20;;;;;;;4.10;3.15;;;21.10;89.80;;;;;;5040026;28;20065;-67
2022/09/05 15:13:04;;;;;;;5.45;3.63;;;21.00;89.80;;;;;;5038079;28;20693;-66
2022/09/05 15:15:44;;;;;;;3.25;2.17;;;21.10;89.90;;;;;;5029874;28;20037;-67
2022/09/05 15:18:16;;;;;;;4.05;2.03;;;21.00;89.90;;;;;;5046994;28;20025;-68
2022/09/05 15:20:47;;;;;;;3.83;2.28;;;21.10;90.00;;;;;;5039457;28;20036;-67
2022/09/05 15:23:18;;;;;;;3.13;2.35;;;21.10;90.00;;;;;;5039057;28;20296;-66
2022/09/05 15:26:01;;;;;;;2.70;2.10;;;21.00;90.00;;;;;;5039521;28;20052;-67
2022/09/05 15:28:34;;;;;;;2.72;2.13;;;21.10;90.00;;;;;;5037482;28;20059;-67
2022/09/05 15:31:06;;;;;;;7.72;2.38;;;21.10;90.00;;;;;;5039252;28;20394;-68
2022/09/05 15:33:34;;;;;;;4.30;2.15;;;21.00;90.00;;;;;;5040701;28;20036;-67
2022/09/05 15:36:02;;;;;;;5.25;2.38;;;21.00;90.00;;;;;;5037242;28;20040;-67
2022/09/05 15:38:39;;;;;;;3.40;2.30;;;21.10;90.00;;;;;;5040146;28;20099;-66
2022/09/05 15:41:27;;;;;;;5.10;2.47;;;21.00;90.00;;;;;;5042265;28;20086;-68
2022/09/05 15:44:04;;;;;;;3.10;2.20;;;21.00;90.00;;;;;;5034175;28;20122;-67
2022/09/05 15:46:48;;;;;;;7.63;2.83;;;21.00;90.00;;;;;;5044812;28;20230;-70
2022/09/05 15:49:27;;;;;;;4.10;2.90;;;21.00;90.10;;;;;;5034564;28;20098;-67
2022/09/05 15:51:56;;;;;;;5.80;3.70;;;21.00;90.10;;;;;;5035528;28;20017;-66
2022/09/05 15:54:47;;;;;;;3.63;2.80;;;21.00;90.00;;;;;;5044227;28;20024;-68
2022/09/05 15:57:19;;;;;;;;;;;21.00;90.10;;;;;;5034901;28;20356;-66